LKPD

Details ICAO LKPD (PED)
Name Pardubice
Region Czech Republic
Timezone Europe/Prague (UTC+2.0)
Plans Departing 34
Arriving 44
Stats Elevation 741 ft / 226 m (AMSL)
Location 50.013463° 15.738572°
Runways 1
Magnetic Variation 4.279° E
Sunrise 2018-05-24 03:01:40 UTC / 2018-05-24 05:01:40 Local
Sunset 2018-05-24 18:48:57 UTC / 2018-05-24 20:48:57 Local
Advertisement - Login to hide

Runways

ID Width Length Bearing (true) Bearing (mag) Surface Threshold Offset Overrun Length
09 246 ft / 75 m 8,174 ft / 2,491 m 92.79° 88.51° Concrete 0 ft / 0 m 0 ft / 0 m
27 246 ft / 75 m 8,174 ft / 2,491 m 272.81° 268.53° Concrete 0 ft / 0 m 0 ft / 0 m

Approach Navaids

Runway Type Ident Frequency Range Bearing (true) Bearing (mag) Slope Elevation
27 Localiser PK 109.35 MHz 18 nm / 33 km 272.75° 268.48° - 780 ft / 238 m (AMSL)
27 Glidescope PK 109.35 MHz 10 nm / 19 km 272.80° 268.52° 3.00° 732 ft / 223 m (AMSL)
27 DME PK 109.35 MHz 18 nm / 33 km - - - 780 ft / 238 m (AMSL)

Map

Weather


0- 5 10 15 20 25 30 35+ Temperature / ° C

Clouds and Precipitation
Forecast for 2018-05-24 06:00 UTC. Updated an hour ago

Ground ~20,000 ft ~40,000 ft Winds

METAR

LKPD 240600Z 09006KT CAVOK 18/14 Q1020 NOSIG RMK BLU BLU

TAF

TAF LKPD 240500Z 2406/2506 09008KT CAVOK PROB30 TEMPO 2410/2416 09014G24KT 5000 TSRA SCT030CB

Frequencies

Tower 120.15 MHz MTWR
Warning: Do not use this data for real-world aviation or navigation. No guarantee of current accuracy is given.